Benjamas Naree — 9V9405 — position and weather

sailwx.info

Track history (hours):
 
Tides and Currents Weather Stations Pressure Air Temp Water Temp Dewpoint Dewpoint Depression Visibility Wind Speed Wind Dir Waves Ship Positions

Benjamas Naree

Last reported at 2017-Sep-19 01:26 UTC. Time now 2017-Sep-22 10:17 UTC.
Position N 39°56' E 025°56'.

Length 181 m; draft 5.5 m.

Type: Ship. MMSI: 566377000.

Date/timePositionNaut miles runAvg speedWind from/ knotsBaromVisibWave heightAir tempDewpointWater temp
2017-Sep-19 01:26N 39°56' E 025°56'510.2
2017-Sep-19 00:55N 39°52' E 025°52'3 7.8
2017-Sep-19 00:30N 39°49' E 025°49'3 6.9
2017-Sep-19 00:00N 39°46' E 025°48'5 8.3
2017-Sep-18 23:24N 39°41' E 025°47'4 9.6
2017-Sep-18 22:56N 39°37' E 025°46'11613.3
2017-Sep-18 14:11N 37°41' E 025°51'313.3
2017-Sep-18 13:57N 37°38' E 025°51'612.8
2017-Sep-18 13:30N 37°32' E 025°52'713.2
2017-Sep-18 13:00N 37°26' E 025°54'  
2017-Sep-12 12:49N 36°32' E 035°42'713.5
2017-Sep-12 12:19N 36°28' E 035°36'1313.6
2017-Sep-12 11:23N 36°24' E 035°21'4013.6
2017-Sep-12 08:26N 36°10' E 034°34'813.3
2017-Sep-12 07:52N 36°07' E 034°26'6213.1
2017-Sep-12 03:10N 35°50' E 033°13'213.0
2017-Sep-12 03:00N 35°49' E 033°10'713.1
2017-Sep-12 02:30N 35°49' E 033°02'613.0
2017-Sep-12 02:01N 35°48' E 032°54'612.9
2017-Sep-12 01:31N 35°48' E 032°46'713.0
2017-Sep-12 01:00N 35°47' E 032°38'713.1
2017-Sep-12 00:30N 35°46' E 032°30'713.2
2017-Sep-11 23:57N 35°45' E 032°21'613.3
2017-Sep-11 23:30N 35°44' E 032°14'713.5
2017-Sep-11 23:01N 35°44' E 032°06'713.7
2017-Sep-11 22:30N 35°43' E 031°57'713.7
2017-Sep-11 22:01N 35°43' E 031°49'713.8
2017-Sep-11 21:30N 35°42' E 031°40'713.6
2017-Sep-11 21:00N 35°42' E 031°32'713.5
2017-Sep-11 20:30N 35°43' E 031°24'713.4
2017-Sep-11 20:00N 35°43' E 031°15'713.3
2017-Sep-11 19:30N 35°42' E 031°07'713.4
2017-Sep-11 19:00N 35°42' E 030°59'713.5
2017-Sep-11 18:30N 35°41' E 030°51'713.4
2017-Sep-11 18:00N 35°41' E 030°42'713.7
2017-Sep-11 17:30N 35°41' E 030°34'713.8
2017-Sep-11 17:00N 35°41' E 030°25'6713.7
2017-Sep-11 12:05N 35°41' E 029°03'18312.3
2017-Sep-10 21:13N 37°25' E 025°55'313.6
2017-Sep-10 21:01N 37°27' E 025°54'713.3
2017-Sep-10 20:31N 37°34' E 025°52'6613.0
2017-Sep-10 15:27N 38°39' E 025°42'7212.9
2017-Sep-10 09:54N 39°51' E 025°46'12513.0
2017-Sep-10 00:18N 40°50' E 028°10'813.1
2017-Sep-09 23:43N 40°51' E 028°20'1913.4
2017-Sep-09 22:19N 40°54' E 028°44'613.3
2017-Sep-09 21:51N 40°56' E 028°52'4 0.8
2017-Sep-09 16:56N 40°57' E 028°57'  
Track history (hours):
 
Tides and Currents Weather Stations Pressure Air Temp Water Temp Dewpoint Dewpoint Depression Visibility Wind Speed Wind Dir Waves Ship Positions

Benjamas Naree

Last reported at 2017-Sep-19 01:26 UTC. Time now 2017-Sep-22 10:17 UTC.
Position N 39°56' E 025°56'.

Length 181 m; draft 5.5 m.

Type: Ship. MMSI: 566377000.

Date/timePositionNaut miles runAvg speedWind from/ knotsBaromVisibWave heightAir tempDewpointWater temp
2017-Sep-19 01:26N 39°56' E 025°56'510.2
2017-Sep-19 00:55N 39°52' E 025°52'3 7.8
2017-Sep-19 00:30N 39°49' E 025°49'3 6.9
2017-Sep-19 00:00N 39°46' E 025°48'5 8.3
2017-Sep-18 23:24N 39°41' E 025°47'4 9.6
2017-Sep-18 22:56N 39°37' E 025°46'11613.3
2017-Sep-18 14:11N 37°41' E 025°51'313.3
2017-Sep-18 13:57N 37°38' E 025°51'612.8
2017-Sep-18 13:30N 37°32' E 025°52'713.2
2017-Sep-18 13:00N 37°26' E 025°54'  
2017-Sep-12 12:49N 36°32' E 035°42'713.5
2017-Sep-12 12:19N 36°28' E 035°36'1313.6
2017-Sep-12 11:23N 36°24' E 035°21'4013.6
2017-Sep-12 08:26N 36°10' E 034°34'813.3
2017-Sep-12 07:52N 36°07' E 034°26'6213.1
2017-Sep-12 03:10N 35°50' E 033°13'213.0
2017-Sep-12 03:00N 35°49' E 033°10'713.1
2017-Sep-12 02:30N 35°49' E 033°02'613.0
2017-Sep-12 02:01N 35°48' E 032°54'612.9
2017-Sep-12 01:31N 35°48' E 032°46'713.0
2017-Sep-12 01:00N 35°47' E 032°38'713.1
2017-Sep-12 00:30N 35°46' E 032°30'713.2
2017-Sep-11 23:57N 35°45' E 032°21'613.3
2017-Sep-11 23:30N 35°44' E 032°14'713.5
2017-Sep-11 23:01N 35°44' E 032°06'713.7
2017-Sep-11 22:30N 35°43' E 031°57'713.7
2017-Sep-11 22:01N 35°43' E 031°49'713.8
2017-Sep-11 21:30N 35°42' E 031°40'713.6
2017-Sep-11 21:00N 35°42' E 031°32'713.5
2017-Sep-11 20:30N 35°43' E 031°24'713.4
2017-Sep-11 20:00N 35°43' E 031°15'713.3
2017-Sep-11 19:30N 35°42' E 031°07'713.4
2017-Sep-11 19:00N 35°42' E 030°59'713.5
2017-Sep-11 18:30N 35°41' E 030°51'713.4
2017-Sep-11 18:00N 35°41' E 030°42'713.7
2017-Sep-11 17:30N 35°41' E 030°34'713.8
2017-Sep-11 17:00N 35°41' E 030°25'6713.7
2017-Sep-11 12:05N 35°41' E 029°03'18312.3
2017-Sep-10 21:13N 37°25' E 025°55'313.6
2017-Sep-10 21:01N 37°27' E 025°54'713.3
2017-Sep-10 20:31N 37°34' E 025°52'6613.0
2017-Sep-10 15:27N 38°39' E 025°42'7212.9
2017-Sep-10 09:54N 39°51' E 025°46'12513.0
2017-Sep-10 00:18N 40°50' E 028°10'813.1
2017-Sep-09 23:43N 40°51' E 028°20'1913.4
2017-Sep-09 22:19N 40°54' E 028°44'613.3
2017-Sep-09 21:51N 40°56' E 028°52'4 0.8
2017-Sep-09 16:56N 40°57' E 028°57'  

Dump ship's entire track history